Sawyer International Airport
KSAW : now visible

Airfield :











YOU CAN JOIN US ON...

 
LOGIN :

Register | Disclaimer

   EN    FR    IT 

 









Legend :    VFR   Marginal VFR   IFR   Intensive IFR   Very Intensive IFR
Visi :
Ceiling :
>= 8 km
>= 3000ft
5 to 8 km
1000 to 3000 ft
1500m to 5 km
500 to 1000 ft
800 to 1500m
200 to 500 ft
< 800m
< 200 ft
Symbols :   Thunderstorms  Fog  Heavy snow  Heavy precipitations  Wind > 20 kt






- Airport Elevation : 1221 ft


KSAW - Sawyer International

CURRENT METAR :
  • 251058Z AUTO 04010KT 7SM -SN OVC003 00/M01 A2978 RMK AO2 T00001007

EXPIRED METARs :
  • 251039Z AUTO 04009G16KT 4SM -SN OVC005 00/M01 A2978 RMK AO2 T00001007
  • 251018Z AUTO 03010KT 1 3/4SM -SN OVC005 00/M01 A2977 RMK AO2 T00001007
  • 250958Z AUTO 03008KT 3/4SM SN OVC005 00/M01 A2978 RMK AO2 P0001 T00001008
  • 250938Z AUTO 04010KT 2 1/2SM -SN OVC005 00/M01 A2979 RMK AO2 T10011009
  • 250918Z AUTO 04011G16KT 1 3/4SM -SN OVC005 00/M01 A2979 RMK AO2 T00001008
  • 250858Z AUTO 04009KT 1 1/2SM -SN OVC005 00/M01 A2979 RMK AO2 P0001 60004 T10011010
  • 250838Z AUTO 04011KT 1 1/4SM -SN OVC005 00/M01 A2980 RMK AO2 P0001 T10011010

TAF KSAW
Valid from the 25 at 06:00 until the 26 at 06:00 UTC


250537Z 2506/2606 05008KT 3/4SM -SN BR OVC005
FM251400 02007KT 1/2SM -SN FG OVC002
FM252100 35006KT 1SM -SN BR OVC004
FM260400 34006KT 2SM -SN BR OVC006



MET'MAP, your aeronautical weather chart ! - Copyright ORBIFLY December 2007 - Disclaimer

ORBIFLY MET'MAP TEAM :

Programming & Development : Alexandra Zaïnal
Concept & original design : Baudouin d'Aumeries
Assistance for programming : Marc-Olivier Méhu
Technical & hardware support : Manuel Goepfert

Contact : metmap@orbifly.com




SOURCES & CREDITS :

   NOAA       Earth
Advisory